createdAt,value
2023-05-21T00:04:31.652Z,5.82
2023-05-21T00:09:34.955Z,6.27
2023-05-21T00:14:40.935Z,9.30
2023-05-21T00:19:43.647Z,5.43
2023-05-21T00:24:46.501Z,9.10
2023-05-21T00:29:49.219Z,9.77
2023-05-21T00:34:51.981Z,8.85
2023-05-21T00:39:56.331Z,9.68
2023-05-21T00:45:01.002Z,11.47
2023-05-21T00:50:06.938Z,9.90
2023-05-21T00:55:10.504Z,11.40
2023-05-21T01:00:15.006Z,8.27
2023-05-21T01:05:18.306Z,8.73
2023-05-21T01:10:21.060Z,8.35
2023-05-21T01:15:24.097Z,9.50
2023-05-21T01:20:30.680Z,7.87
2023-05-21T01:25:36.450Z,7.53
2023-05-21T01:30:44.187Z,7.47
2023-05-21T01:35:55.986Z,8.10
2023-05-21T01:41:04.448Z,7.47
2023-05-21T01:46:10.936Z,9.48
2023-05-21T01:51:15.010Z,8.30
2023-05-21T01:56:18.182Z,9.73
2023-05-21T02:01:21.209Z,6.97
2023-05-21T02:06:24.250Z,6.75
2023-05-21T02:11:27.111Z,6.27
2023-05-21T02:16:29.926Z,6.60
2023-05-21T02:21:33.004Z,9.48
2023-05-21T02:26:35.985Z,9.70
2023-05-21T02:31:38.655Z,6.80
2023-05-21T02:36:41.977Z,9.02
2023-05-21T02:41:44.746Z,10.17
2023-05-21T02:46:47.747Z,7.97
2023-05-21T02:51:52.583Z,13.45
2023-05-21T02:56:56.061Z,9.73
2023-05-21T03:01:58.715Z,10.97
2023-05-21T03:07:02.466Z,10.43
2023-05-21T03:12:07.101Z,9.30
2023-05-21T03:17:14.214Z,7.93
2023-05-21T03:22:17.029Z,9.43
2023-05-21T03:27:19.730Z,4.68
2023-05-21T03:32:23.956Z,6.63
2023-05-21T03:37:27.929Z,5.83
2023-05-21T03:42:30.770Z,6.28
2023-05-21T03:47:34.305Z,6.63
2023-05-21T03:52:39.676Z,5.00
2023-05-21T03:57:42.980Z,5.53
2023-05-21T04:02:46.105Z,6.00
2023-05-21T04:07:52.882Z,5.87
2023-05-21T04:12:57.215Z,4.80
2023-05-21T04:18:00.802Z,4.95
2023-05-21T04:23:03.965Z,6.70
2023-05-21T04:28:07.564Z,5.63
2023-05-21T04:33:10.385Z,4.13
2023-05-21T04:38:13.179Z,6.90
2023-05-21T04:43:17.636Z,3.63
2023-05-21T04:48:29.732Z,6.75
2023-05-21T04:53:32.489Z,6.13
2023-05-21T04:58:35.315Z,5.23
2023-05-21T05:03:40.928Z,4.63
2023-05-21T05:08:44.887Z,7.53
2023-05-21T05:21:13.687Z,3.30
2023-05-21T05:26:16.568Z,4.20
2023-05-21T05:31:19.385Z,5.05
2023-05-21T05:36:22.890Z,4.17
2023-05-21T05:41:25.613Z,6.95
2023-05-21T05:46:31.414Z,4.72
2023-05-21T05:51:34.413Z,3.47
2023-05-21T05:56:37.217Z,5.28
2023-05-21T06:01:42.791Z,4.03
2023-05-21T06:06:47.738Z,3.37
2023-05-21T06:11:50.781Z,4.57
2023-05-21T06:16:53.965Z,4.43
2023-05-21T06:21:56.869Z,5.53
2023-05-21T06:26:59.805Z,3.70
2023-05-21T06:32:03.944Z,5.05
2023-05-21T06:37:07.568Z,5.03
2023-05-21T06:42:10.342Z,3.87
2023-05-21T06:47:29.532Z,5.18
2023-05-21T06:52:32.119Z,6.22
2023-05-21T06:57:41.335Z,7.63
2023-05-21T07:02:45.190Z,7.33
2023-05-21T07:07:48.035Z,11.60
2023-05-21T07:12:51.528Z,8.60
2023-05-21T07:17:55.768Z,11.17
2023-05-21T07:22:58.477Z,8.48
2023-05-21T07:28:01.390Z,7.57
2023-05-21T07:33:04.472Z,12.00
2023-05-21T07:38:07.367Z,7.28
2023-05-21T07:43:10.298Z,4.45
2023-05-21T07:48:15.970Z,9.40
2023-05-21T07:53:32.682Z,11.57
2023-05-21T07:58:41.501Z,7.47
2023-05-21T08:09:06.547Z,6.03
2023-05-21T08:14:09.351Z,8.43
2023-05-21T08:19:12.376Z,7.68
2023-05-21T08:24:15.819Z,6.27
2023-05-21T08:29:18.458Z,6.50
2023-05-21T08:34:21.459Z,7.47
2023-05-21T08:39:35.624Z,11.17
2023-05-21T08:44:44.848Z,5.23
2023-05-21T08:49:48.462Z,8.32
2023-05-21T08:54:54.675Z,8.05
2023-05-21T08:59:58.855Z,7.70
2023-05-21T09:05:04.851Z,5.85
2023-05-21T09:10:10.408Z,6.85
2023-05-21T09:15:16.126Z,11.00
2023-05-21T09:20:25.397Z,5.35
2023-05-21T09:25:33.828Z,7.65
2023-05-21T09:30:53.771Z,5.80
2023-05-21T09:35:56.903Z,6.00
2023-05-21T09:41:05.795Z,7.80
2023-05-21T09:46:08.510Z,4.15
2023-05-21T09:51:22.934Z,6.17
2023-05-21T09:56:29.359Z,4.57
2023-05-21T10:01:36.422Z,6.40
2023-05-21T10:06:44.072Z,6.23
2023-05-21T10:11:49.986Z,5.43
2023-05-21T10:16:55.100Z,4.38
2023-05-21T10:21:58.419Z,7.33
2023-05-21T10:27:02.904Z,3.90
2023-05-21T10:32:06.514Z,6.43
2023-05-21T10:37:10.304Z,4.07
2023-05-21T10:42:31.186Z,4.50
2023-05-21T10:47:55.118Z,5.38
2023-05-21T10:53:36.956Z,4.35
2023-05-21T10:58:54.526Z,3.57
2023-05-21T11:03:58.053Z,3.97
2023-05-21T11:09:14.329Z,6.03
2023-05-21T11:14:40.365Z,4.67
2023-05-21T11:19:44.121Z,4.63
2023-05-21T11:24:47.779Z,5.60
2023-05-21T11:29:56.200Z,4.35
2023-05-21T11:35:04.212Z,5.93
2023-05-21T11:40:27.535Z,3.47
2023-05-21T11:45:32.909Z,4.70
2023-05-21T11:50:36.012Z,4.27
2023-05-21T11:55:43.923Z,4.65
2023-05-21T12:00:46.517Z,4.55
2023-05-21T12:06:06.033Z,6.03
2023-05-21T12:11:08.742Z,3.97
2023-05-21T12:16:12.286Z,5.07
2023-05-21T12:21:15.554Z,3.97
2023-05-21T12:26:18.253Z,5.40
2023-05-21T12:31:25.104Z,4.22
2023-05-21T12:36:30.696Z,5.93
2023-05-21T12:41:33.379Z,3.87
2023-05-21T12:46:37.392Z,6.78
2023-05-21T12:51:40.625Z,3.20
2023-05-21T12:56:46.856Z,4.23
2023-05-21T13:01:49.600Z,5.20
2023-05-21T13:06:52.331Z,5.38
2023-05-21T13:11:55.007Z,4.18
2023-05-21T13:16:58.316Z,4.50
2023-05-21T13:22:01.111Z,5.03
2023-05-21T13:27:03.952Z,4.47
2023-05-21T13:32:06.739Z,3.80
2023-05-21T13:37:09.381Z,4.25
2023-05-21T13:42:13.937Z,7.07
2023-05-21T13:47:16.950Z,5.53
2023-05-21T13:52:20.352Z,5.20
2023-05-21T13:57:23.001Z,8.02
2023-05-21T14:02:29.151Z,3.42
2023-05-21T14:07:31.761Z,4.67
2023-05-21T14:12:34.971Z,4.75
2023-05-21T14:17:40.653Z,5.93
2023-05-21T14:22:43.424Z,5.07
2023-05-21T14:27:46.124Z,8.13
2023-05-21T14:32:48.730Z,5.03
2023-05-21T14:37:51.406Z,5.03
2023-05-21T14:42:54.464Z,4.50
2023-05-21T14:47:57.165Z,5.15
2023-05-21T14:52:59.677Z,5.20
2023-05-21T14:58:03.680Z,5.70
2023-05-21T15:03:07.003Z,3.45
2023-05-21T15:08:10.069Z,4.15
2023-05-21T15:13:12.766Z,5.33
2023-05-21T15:18:16.414Z,5.07
2023-05-21T15:23:19.319Z,5.78
2023-05-21T15:28:24.343Z,4.03
2023-05-21T15:33:26.872Z,4.50
2023-05-21T15:38:29.523Z,4.63
2023-05-21T15:43:32.563Z,3.30
2023-05-21T15:48:35.114Z,3.10
2023-05-21T15:53:37.664Z,8.10
2023-05-21T15:58:40.336Z,3.67
2023-05-21T16:03:43.013Z,3.90
2023-05-21T16:08:46.176Z,4.85
2023-05-21T16:13:48.787Z,5.75
2023-05-21T16:18:54.576Z,3.40
2023-05-21T16:23:57.084Z,7.33
2023-05-21T16:29:00.294Z,3.90
2023-05-21T16:34:02.891Z,5.65
2023-05-21T16:39:05.688Z,9.70
2023-05-21T16:44:08.432Z,7.63
2023-05-21T16:49:11.017Z,9.32
2023-05-21T16:54:13.940Z,6.10
2023-05-21T16:59:16.710Z,6.10
2023-05-21T17:04:19.331Z,6.57
2023-05-21T17:09:22.001Z,6.73
2023-05-21T17:14:33.924Z,5.80
2023-05-21T17:19:37.744Z,6.07
2023-05-21T17:24:40.549Z,6.45
2023-05-21T17:29:43.091Z,7.90
2023-05-21T17:34:46.075Z,4.90
2023-05-21T17:40:07.327Z,5.53
2023-05-21T17:45:10.586Z,8.27
2023-05-21T17:50:13.314Z,9.63
2023-05-21T17:55:15.934Z,13.23
2023-05-21T18:00:18.884Z,9.73
2023-05-21T18:05:21.577Z,7.73
2023-05-21T18:10:26.649Z,7.45
2023-05-21T18:15:29.210Z,5.97
2023-05-21T18:20:31.804Z,6.40
2023-05-21T18:25:36.054Z,8.48
2023-05-21T18:30:39.005Z,7.97
2023-05-21T18:35:44.450Z,8.77
2023-05-21T18:40:47.366Z,8.57
2023-05-21T18:45:49.991Z,8.02
2023-05-21T18:50:53.147Z,7.70
2023-05-21T18:55:55.836Z,9.77
2023-05-21T19:00:58.408Z,8.60
2023-05-21T19:06:01.128Z,7.15
2023-05-21T19:11:04.095Z,6.03
2023-05-21T19:16:11.303Z,10.65
2023-05-21T19:21:14.156Z,10.98
2023-05-21T19:26:17.117Z,6.23
2023-05-21T19:31:20.868Z,5.38
2023-05-21T19:36:23.598Z,9.45
2023-05-21T19:41:26.761Z,6.90
2023-05-21T19:46:29.493Z,10.63
2023-05-21T19:51:33.426Z,8.75
2023-05-21T19:56:36.563Z,9.00
2023-05-21T20:01:40.536Z,8.83
2023-05-21T20:06:43.239Z,10.70
2023-05-21T20:11:45.834Z,11.05
2023-05-21T20:16:48.792Z,17.93
2023-05-21T20:21:51.441Z,18.25
2023-05-21T20:26:55.190Z,13.65
2023-05-21T20:31:58.209Z,8.50
2023-05-21T20:37:00.811Z,10.63
2023-05-21T20:42:06.643Z,7.55
2023-05-21T20:47:10.565Z,6.32
2023-05-21T20:52:14.519Z,8.60
2023-05-21T20:57:17.320Z,13.43
2023-05-21T21:02:20.973Z,13.75
2023-05-21T21:07:23.712Z,11.10
2023-05-21T21:12:26.988Z,12.93
2023-05-21T21:17:29.824Z,13.90
2023-05-21T21:22:32.504Z,17.93
2023-05-21T21:27:35.317Z,11.10
2023-05-21T21:32:38.152Z,13.07
2023-05-21T21:37:41.056Z,11.82
2023-05-21T21:42:43.736Z,9.33
2023-05-21T21:47:46.393Z,9.68
2023-05-21T21:52:49.249Z,9.73
2023-05-21T21:57:51.940Z,8.57
2023-05-21T22:02:54.713Z,7.85
2023-05-21T22:07:57.430Z,11.55
2023-05-21T22:13:02.895Z,8.47
2023-05-21T22:18:09.870Z,6.23
2023-05-21T22:23:12.688Z,7.00
2023-05-21T22:28:15.281Z,9.68
2023-05-21T22:33:17.996Z,6.10
2023-05-21T22:38:21.108Z,6.22
2023-05-21T22:43:23.812Z,8.40
2023-05-21T22:48:26.742Z,8.77
2023-05-21T22:53:29.345Z,6.32
2023-05-21T22:58:32.155Z,6.60
2023-05-21T23:03:34.636Z,6.17
2023-05-21T23:08:37.261Z,6.47
2023-05-21T23:13:39.861Z,9.43
2023-05-21T23:18:42.364Z,4.65
2023-05-21T23:23:44.915Z,5.47
2023-05-21T23:28:47.502Z,6.55
2023-05-21T23:33:51.542Z,4.47
2023-05-21T23:38:54.136Z,6.27
2023-05-21T23:43:56.769Z,5.43
2023-05-21T23:48:59.873Z,4.03
2023-05-21T23:54:02.562Z,4.80
2023-05-21T23:59:05.217Z,3.87
